Latest Weather Observations for Essendon Airport

IDV60901

Issued at 11:31 am EDT Monday 22 December 2014 (issued every 10 minutes, with the page automatically refreshed every 10 minutes)

About weather observations | Map of Melbourne area stations | Latest observations for Melbourne area | Other Formats
Station Details ID: 086038 Name: ESSENDON AIRPORT Lat: -37.73 Lon: 144.91 Height: 78.4 m
Data from the previous 72 hours. | See also: Recent months at Essendon Airport
Date/Time
EDT
Tmp

°C
App
Tmp
°C
Dew
Point
°C
Rel
Hum
%
Delta-T

°C
Wind Press
QNH
hPa
Press
MSL
hPa
Rain
since
9 am
mm
Dir
 
Spd
km/h
Gust
km/h
Spd
kts
Gust
kts
22/11:00am 22.4 21.1 15.7 66 4.0 S 17 24 9 13 1012.3 1012.2 0.0
22/10:30am 22.2 21.8 15.3 65 4.1 S 11 15 6 8 1012.7 1012.6 0.0
22/10:00am 21.6 22.0 15.2 67 3.8 S 7 11 4 6 1013.0 1012.9 0.0
22/09:35am 19.7 20.1 14.7 73 2.9 SSW 6 11 3 6 1013.0 1012.9 0.0
22/09:30am 20.1 20.5 14.7 71 3.2 SSW 6 11 3 6 1013.1 1013.0 0.0
22/09:00am 18.9 19.3 14.8 77 2.4 WNW 6 9 3 5 1013.1 1013.0 0.0
22/08:30am 18.2 19.8 14.9 81 1.9 CALM 0 0 0 0 1013.2 1013.1 0.0
22/08:00am 18.2 18.6 15.3 83 1.7 S 7 11 4 6 1013.2 1013.1 0.0
22/07:30am 17.6 18.0 15.2 86 1.4 W 7 9 4 5 1013.1 1013.0 0.0
22/07:00am 17.1 17.1 15.3 89 1.1 WSW 9 11 5 6 1012.9 1012.8 0.0
22/06:30am 16.5 16.0 14.9 90 0.9 W 11 15 6 8 1012.9 1012.8 0.0
22/05:30am 16.5 15.9 14.7 89 1.0 WSW 11 13 6 7 1012.6 1012.5 0.0
22/05:00am 16.7 15.8 14.9 89 1.0 WSW 13 15 7 8 1012.5 1012.4 0.0
22/04:30am 16.8 15.5 14.8 88 1.2 W 15 17 8 9 1012.6 1012.5 0.0
22/04:00am 16.9 16.0 14.9 88 1.2 W 13 15 7 8 1012.7 1012.6 0.0
22/03:30am 16.9 16.0 14.9 88 1.2 W 13 17 7 9 1012.9 1012.8 0.0
22/03:00am 16.9 15.9 14.7 87 1.3 W 13 17 7 9 1013.1 1013.0 0.0
22/02:30am 17.1 15.5 15.1 88 1.2 WSW 17 19 9 10 1013.3 1013.2 0.0
22/02:00am 17.1 15.9 15.1 88 1.2 WSW 15 20 8 11 1013.5 1013.4 0.0
22/01:30am 17.3 15.8 15.3 88 1.2 SW 17 20 9 11 1013.9 1013.8 0.0
22/01:23am 17.3 15.8 15.3 88 1.2 SW 17 20 9 11 1013.9 1013.8 0.0
22/01:00am 17.5 15.9 15.0 85 1.5 SW 17 24 9 13 1014.2 1014.1 0.0
22/12:30am 17.9 16.4 15.2 84 1.6 SW 17 22 9 12 1014.4 1014.3 0.0
 
Date/Time
EDT
Tmp

°C
App
Tmp
°C
Dew
Point
°C
Rel
Hum
%
Delta-T

°C
Wind Press
QNH
hPa
Press
MSL
hPa
Rain
since
9 am
mm
Dir
 
Spd
km/h
Gust
km/h
Spd
kts
Gust
kts
21/11:30pm 18.4 16.4 14.9 80 2.0 SW 19 24 10 13 1014.3 1014.2 0.0
21/11:00pm 19.1 17.5 15.0 77 2.4 SSW 17 26 9 14 1014.3 1014.2 0.0
21/10:30pm 20.8 17.8 13.7 64 4.1 SSW 22 32 12 17 1014.1 1014.0 0.0
21/10:00pm 21.7 19.4 14.1 62 4.4 SSW 19 26 10 14 1013.8 1013.7 0.0
21/09:30pm 22.4 19.6 14.3 60 4.8 SSW 22 33 12 18 1013.1 1013.0 0.0
21/09:00pm 24.3 22.5 14.4 54 5.9 SSW 17 26 9 14 1012.4 1012.3 0.0
21/08:30pm 24.9 21.9 13.8 50 6.5 S 22 32 12 17 1011.9 1011.8 0.0
21/08:00pm 25.7 21.9 13.5 46 7.2 S 26 35 14 19 1011.5 1011.3 0.0
21/07:30pm 26.7 23.0 13.8 45 7.7 S 26 33 14 18 1011.2 1011.0 0.0
21/07:00pm 27.2 24.3 15.2 47 7.3 S 24 32 13 17 1010.8 1010.6 0.0
21/06:30pm 28.0 25.3 15.6 46 7.6 S 24 32 13 17 1010.6 1010.4 0.0
21/05:30pm 29.4 23.8 10.0 30 11.0 S 30 37 16 20 1010.6 1010.4 0.0
21/05:19pm 30.3 24.6 9.8 28 11.6 S 30 39 16 21 1010.4 1010.2 0.0
21/05:00pm 32.8 30.1 8.9 23 13.5 S 13 20 7 11 1010.5 1010.3 0.0
21/04:30pm 32.6 27.7 10.0 25 13.0 S 26 35 14 19 1010.7 1010.5 0.0
21/04:00pm 32.6 30.2 8.8 23 13.4 S 11 22 6 12 1010.9 1010.7 0.0
21/03:30pm 32.8 30.3 9.6 24 13.2 SSE 13 20 7 11 1011.1 1010.9 0.0
21/03:00pm 31.7 29.7 8.7 24 12.9 ESE 9 22 5 12 1011.6 1011.5 0.0
21/02:30pm 31.7 29.6 9.8 26 12.5 SE 11 17 6 9 1012.0 1011.9 0.0
21/02:00pm 29.9 26.3 11.9 33 10.5 S 22 26 12 14 1012.5 1012.4 0.0
21/01:30pm 30.2 26.9 11.7 32 10.8 SSE 20 32 11 17 1012.7 1012.6 0.0
21/01:00pm 31.3 29.1 9.5 26 12.3 NNE 11 19 6 10 1013.0 1012.9 0.0
21/12:30pm 31.7 30.6 13.0 32 11.2 ESE 11 19 6 10 1013.2 1013.1 0.0
21/12:00pm 29.8 27.7 11.3 32 10.7 SSW 13 24 7 13 1013.4 1013.3 0.0
21/11:30am 28.2 26.8 12.1 37 9.4 SSW 11 17 6 9 1013.7 1013.6 0.0
21/11:00am 27.4 26.8 13.4 42 8.3 SSE 9 15 5 8 1013.7 1013.6 0.0
21/10:30am 25.2 24.4 12.8 46 7.2 E 9 13 5 7 1013.7 1013.6 0.0
21/10:00am 23.4 22.7 13.3 53 5.9 E 9 15 5 8 1014.1 1014.0 0.0
21/09:30am 21.3 20.1 12.7 58 4.9 NE 11 15 6 8 1014.5 1014.4 0.0
21/09:00am 20.0 18.5 13.0 64 4.0 ENE 13 17 7 9 1014.6 1014.5 0.0
21/08:30am 18.3 17.1 12.7 70 3.1 ENE 11 15 6 8 1014.8 1014.7 0.0
21/08:00am 16.5 14.9 12.8 79 2.1 ENE 13 17 7 9 1014.6 1014.5 0.0
21/07:30am 15.1 14.6 12.6 85 1.4 ENE 7 9 4 5 1015.3 1015.1 0.0
21/07:00am 13.9 13.6 12.8 93 0.6 ENE 6 7 3 4 1015.2 1015.0 0.0
21/06:30am 11.3 11.5 10.5 95 0.4 CALM 0 0 0 0 1015.0 1014.9 0.0
21/06:00am 11.7 12.1 11.1 96 0.3 CALM 0 2 0 1 1014.7 1014.6 0.0
21/05:30am 11.3 10.2 10.5 95 0.4 NNW 7 7 4 4 1014.6 1014.5 0.0
21/05:00am 11.2 10.0 10.3 94 0.5 NNW 7 9 4 5 1014.1 1014.0 0.0
21/04:30am 11.5 10.0 10.6 94 0.5 NNW 9 9 5 5 1014.2 1014.1 0.0
21/04:00am 12.3 10.6 11.2 93 0.6 NNW 11 13 6 7 1014.5 1014.4 0.0
21/03:30am 12.3 10.2 11.0 92 0.7 NNW 13 13 7 7 1014.8 1014.7 0.0
21/03:00am 12.6 11.8 11.2 91 0.7 N 6 7 3 4 1015.3 1015.1 0.0
21/02:30am 12.3 11.4 10.7 90 0.8 N 6 7 3 4 1015.5 1015.3 0.0
21/02:00am 13.0 12.1 10.7 86 1.2 SE 6 6 3 3 1015.9 1015.7 0.0
21/01:30am 13.8 13.2 11.7 87 1.1 SE 6 6 3 3 1016.1 1015.9 0.0
21/01:00am 13.9 13.0 11.4 85 1.3 SE 7 9 4 5 1016.7 1016.5 0.0
21/12:30am 14.2 13.5 11.4 83 1.5 SE 6 7 3 4 1017.1 1016.9 0.0
21/12:00am 15.2 14.4 11.6 79 1.9 SSE 7 7 4 4 1017.4 1017.2 0.0
 
Date/Time
EDT
Tmp

°C
App
Tmp
°C
Dew
Point
°C
Rel
Hum
%
Delta-T

°C
Wind Press
QNH
hPa
Press
MSL
hPa
Rain
since
9 am
mm
Dir
 
Spd
km/h
Gust
km/h
Spd
kts
Gust
kts
20/11:30pm 15.4 14.5 11.4 77 2.2 SE 7 11 4 6 1017.5 1017.3 0.0
20/11:00pm 16.0 14.9 12.0 77 2.2 SSW 9 11 5 6 1017.7 1017.5 0.0
20/10:30pm 16.5 14.9 12.7 78 2.1 SSW 13 17 7 9 1017.8 1017.6 0.0
20/10:00pm 16.4 14.8 12.9 80 1.9 SSW 13 17 7 9 1017.8 1017.6 0.0
20/09:30pm 16.9 14.2 13.0 78 2.2 SSW 19 24 10 13 1017.6 1017.4 0.0
20/09:00pm 17.1 14.2 12.8 76 2.4 SSW 20 28 11 15 1017.4 1017.2 0.0
20/08:30pm 17.4 14.4 12.5 73 2.7 SSW 20 28 11 15 1017.3 1017.1 0.0
20/08:00pm 18.0 14.7 12.7 71 3.0 S 22 30 12 16 1017.2 1017.0 0.0
20/07:30pm 18.7 15.0 12.7 68 3.4 S 24 33 13 18 1017.0 1016.8 0.0
20/07:00pm 19.5 16.0 12.3 63 4.0 S 22 30 12 16 1016.8 1016.6 0.0
20/06:30pm 20.2 16.5 12.7 62 4.2 S 24 30 13 16 1016.6 1016.4 0.0
20/06:00pm 20.7 16.7 11.9 57 4.9 S 24 30 13 16 1016.2 1016.0 0.0
20/05:30pm 21.2 16.7 10.1 49 6.0 S 24 33 13 18 1016.3 1016.1 0.0
20/05:00pm 22.1 18.2 10.9 49 6.2 S 22 28 12 15 1016.5 1016.3 0.0
20/04:30pm 21.8 17.7 10.0 47 6.4 S 22 30 12 16 1016.5 1016.3 0.0
20/04:00pm 21.9 18.2 10.1 47 6.4 S 20 32 11 17 1016.8 1016.6 0.0
20/03:30pm 21.9 18.7 10.1 47 6.4 S 17 22 9 12 1017.1 1016.9 0.0
20/03:00pm 22.9 19.5 10.7 46 6.7 S 19 32 10 17 1017.4 1017.2 0.0
20/02:30pm 21.0 18.6 9.9 49 6.0 SSW 13 24 7 13 1017.9 1017.7 0.0
20/02:00pm 21.5 18.6 10.9 51 5.8 SSE 17 26 9 14 1018.1 1017.9 0.0
20/01:30pm 20.6 17.4 9.8 50 5.8 S 17 24 9 13 1018.3 1018.1 0.0
20/01:00pm 20.5 17.4 10.3 52 5.5 S 17 30 9 16 1018.5 1018.3 0.0
20/12:30pm 20.9 18.6 10.4 51 5.7 S 13 20 7 11 1018.8 1018.6 0.0
20/12:00pm 19.2 17.1 9.7 54 5.1 SSW 11 20 6 11 1019.0 1018.8 0.0
20/11:30am 18.9 16.0 9.7 55 4.9 S 15 28 8 15 1019.2 1019.0 0.0
20/11:00am 18.6 16.3 9.1 54 5.0 SW 11 17 6 9 1019.3 1019.1 0.0
20/10:30am 18.4 15.6 8.7 53 5.0 SSW 13 26 7 14 1019.6 1019.4 0.0
20/10:00am 16.9 14.4 8.3 57 4.4 SSW 11 19 6 10 1019.6 1019.4 0.0
20/09:30am 16.2 12.9 8.2 59 4.1 SSW 15 20 8 11 1019.6 1019.4 0.0
20/09:00am 15.7 12.9 8.7 63 3.6 SSW 13 20 7 11 1019.4 1019.2 0.0
20/08:30am 15.0 12.6 8.7 66 3.2 SW 11 17 6 9 1019.2 1019.0 0.0
20/08:00am 14.0 11.6 8.6 70 2.7 WSW 11 15 6 8 1018.9 1018.7 0.0
20/07:30am 13.0 10.5 8.3 73 2.3 W 11 15 6 8 1018.6 1018.4 0.0
20/07:00am 12.1 9.6 8.4 78 1.8 WNW 11 15 6 8 1018.3 1018.1 0.0
20/06:30am 10.6 8.4 8.0 84 1.3 WNW 9 11 5 6 1018.2 1018.0 0.0
20/06:00am 9.6 7.6 6.9 83 1.3 NW 7 9 4 5 1018.0 1017.8 0.0
20/05:30am 10.3 8.0 7.5 83 1.3 WNW 9 11 5 6 1018.0 1017.8 0.0
20/05:00am 10.1 7.4 7.2 82 1.4 WNW 11 13 6 7 1017.9 1017.7 0.0
20/04:30am 10.5 7.9 7.6 82 1.4 W 11 13 6 7 1017.9 1017.7 0.0
20/04:00am 10.8 7.7 7.3 79 1.7 W 13 15 7 8 1017.9 1017.7 0.0
20/03:30am 11.0 8.3 7.5 79 1.7 W 11 13 6 7 1017.9 1017.7 0.0
20/03:00am 11.6 8.7 8.1 79 1.7 WSW 13 15 7 8 1018.2 1018.0 0.0
20/02:30am 11.7 8.8 8.0 78 1.8 WSW 13 15 7 8 1018.3 1018.1 0.0
20/02:00am 12.6 8.9 7.9 73 2.3 WSW 17 20 9 11 1018.6 1018.4 0.0
20/01:30am 13.3 10.0 8.2 71 2.5 SW 15 17 8 9 1018.9 1018.7 0.0
20/01:00am 13.3 10.8 8.4 72 2.4 SW 11 13 6 7 1019.1 1018.9 0.0
20/12:30am 14.8 12.2 9.2 69 2.9 S 13 17 7 9 1019.3 1019.1 0.0
20/12:00am 15.0 11.5 8.9 67 3.1 S 17 20 9 11 1019.5 1019.3 0.0
 
Date/Time
EDT
Tmp

°C
App
Tmp
°C
Dew
Point
°C
Rel
Hum
%
Delta-T

°C
Wind Press
QNH
hPa
Press
MSL
hPa
Rain
since
9 am
mm
Dir
 
Spd
km/h
Gust
km/h
Spd
kts
Gust
kts
19/11:30pm 15.2 11.8 9.3 68 3.0 S 17 24 9 13 1019.7 1019.5 0.0
19/11:00pm 15.2 11.8 9.3 68 3.0 S 17 24 9 13 1019.9 1019.7 0.0
19/10:30pm 14.9 11.7 8.6 66 3.2 S 15 20 8 11 1019.9 1019.7 0.0
19/10:00pm 14.9 12.1 8.4 65 3.3 SSE 13 19 7 10 1019.8 1019.6 0.0
19/09:30pm 14.9 10.8 7.9 63 3.5 S 19 24 10 13 1019.7 1019.5 0.0
19/09:00pm 15.0 11.6 7.8 62 3.6 S 15 22 8 12 1019.7 1019.5 0.0
19/08:30pm 15.3 11.1 7.6 60 3.8 S 19 24 10 13 1019.6 1019.4 0.0
19/08:00pm 15.8 11.1 7.6 58 4.1 SSE 22 30 12 16 1019.5 1019.3 0.0
19/07:30pm 16.2 11.1 7.7 57 4.3 SSE 24 30 13 16 1019.1 1018.9 0.0
19/07:00pm 16.8 11.8 8.2 57 4.4 S 24 35 13 19 1018.6 1018.4 0.0
19/06:30pm 17.2 12.3 8.4 56 4.5 S 24 35 13 19 1018.3 1018.1 0.0
19/06:00pm 16.9 12.3 8.3 57 4.4 S 22 33 12 18 1018.0 1017.8 0.0
19/05:30pm 17.6 12.6 8.2 54 4.8 S 24 33 13 18 1017.8 1017.6 0.0
19/05:00pm 18.7 14.2 8.4 51 5.3 S 22 33 12 18 1017.7 1017.5 0.0
19/04:30pm 18.8 14.1 7.9 49 5.6 S 22 35 12 19 1017.7 1017.5 0.0
19/04:00pm 18.4 13.9 8.4 52 5.2 S 22 33 12 18 1017.5 1017.3 0.0
19/03:30pm 18.3 14.0 7.7 50 5.4 SSE 20 35 11 19 1017.4 1017.2 0.0
19/03:00pm 18.4 14.3 7.8 50 5.4 S 19 30 10 16 1017.4 1017.2 0.0
19/02:30pm 17.6 12.9 7.9 53 4.9 SSW 22 32 12 17 1017.6 1017.4 0.0
19/02:00pm 18.1 13.9 8.1 52 5.1 S 20 30 11 16 1017.6 1017.4 0.0
19/01:30pm 18.5 14.2 7.0 47 5.8 S 19 26 10 14 1017.6 1017.4 0.0
19/01:00pm 17.5 12.3 7.3 51 5.1 SSW 24 33 13 18 1018.0 1017.8 0.0
19/12:30pm 17.4 11.7 6.6 49 5.4 S 26 39 14 21 1017.8 1017.6 0.0
19/12:00pm 17.1 11.8 6.6 50 5.2 S 24 35 13 19 1017.6 1017.4 0.0

Latest Capital City Observations: Canberra | Sydney | Melbourne | Brisbane | Adelaide | Perth | Hobart | Darwin

Other Formats:

Comma delimited format used in spreadsheet applications
http://www.bom.gov.au/fwo/IDV60901/IDV60901.95866.axf

JavaScript Object Notation format (JSON) in row-major order
http://www.bom.gov.au/fwo/IDV60901/IDV60901.95866.json